createdAt,value
2018-12-06T00:00:03.016Z,95906.73
2018-12-06T00:02:33.167Z,95911.88
2018-12-06T00:05:02.648Z,95911.53
2018-12-06T00:07:32.060Z,95917.05
2018-12-06T00:10:01.695Z,95918.64
2018-12-06T00:12:31.267Z,95918.00
2018-12-06T00:15:11.865Z,95922.70
2018-12-06T00:17:41.647Z,95914.45
2018-12-06T00:20:11.350Z,95913.36
2018-12-06T00:22:40.988Z,95918.63
2018-12-06T00:25:10.596Z,95923.67
2018-12-06T00:27:40.028Z,95913.53
2018-12-06T00:30:20.979Z,95913.89
2018-12-06T00:32:50.619Z,95912.91
2018-12-06T00:35:20.119Z,95913.67
2018-12-06T00:37:50.004Z,95919.02
2018-12-06T00:40:19.613Z,95913.55
2018-12-06T00:42:49.364Z,95919.19
2018-12-06T00:45:19.263Z,95912.56
2018-12-06T00:47:49.025Z,95921.12
2018-12-06T00:50:18.799Z,95912.75
2018-12-06T00:52:48.703Z,95920.36
2018-12-06T00:55:18.240Z,95917.42
2018-12-06T00:57:47.956Z,95908.70
2018-12-06T01:00:18.339Z,95907.45
2018-12-06T01:02:48.071Z,95910.67
2018-12-06T01:05:17.819Z,95913.27
2018-12-06T01:07:47.955Z,95911.98
2018-12-06T01:10:17.649Z,95911.34
2018-12-06T01:12:47.417Z,95919.89
2018-12-06T01:15:17.227Z,95908.47
2018-12-06T01:17:46.671Z,95909.75
2018-12-06T01:20:16.763Z,95905.89
2018-12-06T01:22:46.294Z,95902.02
2018-12-06T01:25:15.907Z,95902.97
2018-12-06T01:27:45.577Z,95900.10
2018-12-06T01:30:15.324Z,95901.86
2018-12-06T01:32:45.097Z,95906.36
2018-12-06T01:35:14.639Z,95905.41
2018-12-06T01:37:44.296Z,95895.58
2018-12-06T01:40:13.963Z,95898.75
2018-12-06T01:42:43.576Z,95901.68
2018-12-06T01:45:13.416Z,95897.16
2018-12-06T01:47:42.869Z,95900.27
2018-12-06T01:50:12.504Z,95898.16
2018-12-06T01:52:42.245Z,95908.16
2018-12-06T01:55:11.875Z,95902.38
2018-12-06T01:57:41.349Z,95900.45
2018-12-06T02:00:11.477Z,95901.39
2018-12-06T02:02:40.953Z,95893.53
2018-12-06T02:05:10.375Z,95896.28
2018-12-06T02:07:39.839Z,95895.00
2018-12-06T02:10:09.250Z,95898.52
2018-12-06T02:12:38.563Z,95894.95
2018-12-06T02:15:08.348Z,95897.57
2018-12-06T02:17:37.599Z,95903.67
2018-12-06T02:20:07.183Z,95891.79
2018-12-06T02:22:37.028Z,95893.38
2018-12-06T02:25:06.396Z,95894.70
2018-12-06T02:27:35.919Z,95884.23
2018-12-06T02:30:05.652Z,95889.21
2018-12-06T02:32:35.191Z,95891.16
2018-12-06T02:35:04.699Z,95889.69
2018-12-06T02:37:34.641Z,95885.69
2018-12-06T02:40:04.127Z,95886.64
2018-12-06T02:42:33.975Z,95887.28
2018-12-06T02:45:03.521Z,95884.37
2018-12-06T02:47:33.088Z,95887.45
2018-12-06T02:50:02.959Z,95899.53
2018-12-06T02:52:32.651Z,95885.70
2018-12-06T02:55:02.109Z,95885.36
2018-12-06T02:57:31.578Z,95883.77
2018-12-06T03:00:01.245Z,95881.50
2018-12-06T03:02:30.723Z,95878.96
2018-12-06T03:05:00.186Z,95882.48
2018-12-06T03:07:29.967Z,95882.52
2018-12-06T03:10:00.124Z,95886.05
2018-12-06T03:12:29.695Z,95889.91
2018-12-06T03:14:59.272Z,95888.48
2018-12-06T03:17:28.677Z,95884.45
2018-12-06T03:19:58.312Z,95887.67
2018-12-06T03:22:27.709Z,95885.41
2018-12-06T03:24:57.141Z,95881.58
2018-12-06T03:27:26.704Z,95894.11
2018-12-06T03:29:56.694Z,95877.72
2018-12-06T03:32:26.242Z,95885.61
2018-12-06T03:34:55.702Z,95881.88
2018-12-06T03:37:25.279Z,95879.64
2018-12-06T03:39:54.556Z,95883.81
2018-12-06T03:42:24.220Z,95881.58
2018-12-06T03:44:53.936Z,95889.61
2018-12-06T03:47:23.477Z,95891.40
2018-12-06T03:49:53.899Z,95893.16
2018-12-06T03:52:23.534Z,95893.16
2018-12-06T03:54:53.012Z,95894.45
2018-12-06T03:57:22.381Z,95893.67
2018-12-06T03:59:52.096Z,95893.50
2018-12-06T04:02:21.633Z,95896.55
2018-12-06T04:04:51.047Z,95906.03
2018-12-06T04:07:20.770Z,95900.23
2018-12-06T04:09:50.056Z,95898.98
2018-12-06T04:12:19.764Z,95898.95
2018-12-06T04:14:49.608Z,95893.50
2018-12-06T04:17:19.168Z,95902.84
2018-12-06T04:19:48.590Z,95901.55
2018-12-06T04:22:18.323Z,95896.88
2018-12-06T04:24:47.800Z,95900.41
2018-12-06T04:27:17.458Z,95904.12
2018-12-06T04:29:47.247Z,95903.81
2018-12-06T04:32:17.571Z,95909.73
2018-12-06T04:34:46.322Z,95911.53
2018-12-06T04:37:15.888Z,95902.83
2018-12-06T04:39:45.347Z,95904.27
2018-12-06T04:42:15.059Z,95910.72
2018-12-06T04:44:45.063Z,95914.74
2018-12-06T04:47:14.685Z,95915.06
2018-12-06T04:49:44.161Z,95915.37
2018-12-06T04:52:14.080Z,95919.23
2018-12-06T04:54:43.509Z,95917.95
2018-12-06T04:57:13.133Z,95911.53
2018-12-06T04:59:42.713Z,95917.95
2018-12-06T05:02:12.352Z,95915.37
2018-12-06T05:04:41.849Z,95920.52
2018-12-06T05:07:11.584Z,95917.00
2018-12-06T05:09:41.265Z,95924.38
2018-12-06T05:12:10.980Z,95928.89
2018-12-06T05:14:40.808Z,95917.95
2018-12-06T05:17:10.230Z,95912.82
2018-12-06T05:19:39.439Z,95921.02
2018-12-06T05:22:09.219Z,95905.72
2018-12-06T05:24:38.649Z,95912.82
2018-12-06T05:27:08.004Z,95911.53
2018-12-06T05:29:37.844Z,95916.17
2018-12-06T05:32:07.215Z,95912.47
2018-12-06T05:34:36.797Z,95914.70
2018-12-06T05:37:06.262Z,95926.62
2018-12-06T05:39:35.852Z,95916.52
2018-12-06T05:42:05.144Z,95911.85
2018-12-06T05:44:35.910Z,95917.64
2018-12-06T05:47:05.296Z,95916.02
2018-12-06T05:49:34.839Z,95919.23
2018-12-06T05:52:04.454Z,95914.73
2018-12-06T05:54:33.891Z,95913.13
2018-12-06T05:57:03.188Z,95919.55
2018-12-06T05:59:33.076Z,95923.56
2018-12-06T06:02:02.729Z,95924.05
2018-12-06T06:04:32.383Z,95919.55
2018-12-06T06:07:02.613Z,95921.78
2018-12-06T06:09:32.128Z,95921.31
2018-12-06T06:12:01.734Z,95927.93
2018-12-06T06:14:31.500Z,95929.21
2018-12-06T06:17:00.797Z,95926.47
2018-12-06T06:19:30.194Z,95925.67
2018-12-06T06:22:00.119Z,95933.39
2018-12-06T06:24:29.500Z,95930.48
2018-12-06T06:26:59.081Z,95926.64
2018-12-06T06:29:28.783Z,95901.70
2018-12-06T06:31:58.050Z,95936.12
2018-12-06T06:34:27.615Z,95927.27
2018-12-06T06:36:57.371Z,95921.48
2018-12-06T06:39:26.835Z,95932.41
2018-12-06T06:41:56.451Z,95934.84
2018-12-06T06:44:26.049Z,95935.62
2018-12-06T06:46:55.444Z,95938.05
2018-12-06T06:49:24.847Z,95935.17
2018-12-06T06:51:54.907Z,95944.34
2018-12-06T06:54:24.381Z,95940.96
2018-12-06T06:56:53.903Z,95937.56
2018-12-06T06:59:26.272Z,95944.66
2018-12-06T07:01:53.609Z,95943.84
2018-12-06T07:04:23.130Z,95946.24
2018-12-06T07:06:52.935Z,95939.99
2018-12-06T07:09:22.327Z,95949.81
2018-12-06T07:11:51.680Z,95944.97
2018-12-06T07:14:21.126Z,95947.23
2018-12-06T07:16:50.732Z,95947.86
2018-12-06T07:19:20.382Z,95955.92
2018-12-06T07:21:50.113Z,95954.30
2018-12-06T07:24:19.477Z,95947.55
2018-12-06T07:26:49.085Z,95953.81
2018-12-06T07:29:18.963Z,95953.00
2018-12-06T07:31:48.593Z,95953.47
2018-12-06T07:34:18.335Z,95954.31
2018-12-06T07:36:48.264Z,95951.89
2018-12-06T07:39:17.799Z,95951.57
2018-12-06T07:41:47.261Z,95951.24
2018-12-06T07:44:16.723Z,95958.50
2018-12-06T07:46:46.336Z,95952.69
2018-12-06T07:49:15.803Z,95948.81
2018-12-06T07:51:45.263Z,95955.44
2018-12-06T07:54:14.582Z,95959.14
2018-12-06T07:56:44.520Z,95961.05
2018-12-06T07:59:14.052Z,95955.61
2018-12-06T08:01:43.604Z,95955.92
2018-12-06T08:04:13.492Z,95957.86
2018-12-06T08:06:43.092Z,95950.12
2018-12-06T08:09:12.639Z,95957.52
2018-12-06T08:11:42.461Z,95957.21
2018-12-06T08:14:12.055Z,95963.80
2018-12-06T08:16:41.556Z,95963.30
2018-12-06T08:19:11.651Z,95962.94
2018-12-06T08:21:41.119Z,95956.19
2018-12-06T08:24:10.617Z,95960.73
2018-12-06T08:26:40.352Z,95961.98
2018-12-06T08:29:09.803Z,95957.78
2018-12-06T08:31:39.315Z,95951.20
2018-12-06T08:34:09.187Z,95960.39
2018-12-06T08:36:38.619Z,95957.48
2018-12-06T08:39:08.241Z,95960.02
2018-12-06T08:41:37.867Z,95969.63
2018-12-06T08:44:07.121Z,95967.68
2018-12-06T08:46:36.637Z,95953.31
2018-12-06T08:49:06.152Z,95956.78
2018-12-06T08:51:36.276Z,95963.73
2018-12-06T08:54:05.671Z,95958.52
2018-12-06T08:56:35.113Z,95957.77
2018-12-06T08:59:04.501Z,95952.03
2018-12-06T09:01:33.985Z,95958.34
2018-12-06T09:04:03.500Z,95957.30
2018-12-06T09:06:33.121Z,95951.27
2018-12-06T09:09:02.492Z,95950.58
2018-12-06T09:11:31.979Z,95956.59
2018-12-06T09:14:01.508Z,95946.89
2018-12-06T09:16:31.133Z,95948.06
2018-12-06T09:19:00.785Z,95937.36
2018-12-06T09:21:30.248Z,95925.33
2018-12-06T09:23:59.823Z,95917.61
2018-12-06T09:26:29.486Z,95904.61
2018-12-06T09:28:59.029Z,95910.50
2018-12-06T09:31:28.596Z,95904.13
2018-12-06T09:34:06.003Z,95900.33
2018-12-06T09:36:35.991Z,95894.89
2018-12-06T09:39:07.876Z,95900.16
2018-12-06T09:41:37.322Z,95887.23
2018-12-06T09:44:07.027Z,95884.61
2018-12-06T09:46:36.540Z,95882.38
2018-12-06T09:49:05.969Z,95854.50
2018-12-06T09:51:35.573Z,95862.27
2018-12-06T09:54:04.999Z,95862.66
2018-12-06T09:56:34.494Z,95855.56
2018-12-06T09:59:03.755Z,95857.36
2018-12-06T10:01:33.731Z,95855.05
2018-12-06T10:04:03.109Z,95856.15
2018-12-06T10:06:32.710Z,95846.72
2018-12-06T10:09:02.563Z,95843.81
2018-12-06T10:11:32.141Z,95843.94
2018-12-06T10:14:01.633Z,95836.95
2018-12-06T10:16:31.016Z,95836.86
2018-12-06T10:19:00.448Z,95835.56
2018-12-06T10:21:29.704Z,95843.95
2018-12-06T10:23:59.431Z,95839.96
2018-12-06T10:26:28.975Z,95837.36
2018-12-06T10:28:58.281Z,95838.57
2018-12-06T10:31:27.806Z,95835.88
2018-12-06T10:33:57.377Z,95831.66
2018-12-06T10:36:26.741Z,95830.55
2018-12-06T10:38:56.330Z,95827.14
2018-12-06T10:41:25.869Z,95826.88
2018-12-06T10:43:55.408Z,95821.91
2018-12-06T10:46:25.256Z,95820.75
2018-12-06T10:48:54.783Z,95818.06
2018-12-06T10:51:35.324Z,95813.23
2018-12-06T10:54:04.703Z,95810.80
2018-12-06T10:56:34.028Z,95804.56
2018-12-06T10:59:03.573Z,95803.16
2018-12-06T11:01:38.052Z,95804.59
2018-12-06T11:04:07.613Z,95797.32
2018-12-06T11:06:37.154Z,95791.38
2018-12-06T11:09:08.615Z,95787.84
2018-12-06T11:11:38.056Z,95781.28
2018-12-06T11:14:07.496Z,95775.19
2018-12-06T11:16:36.935Z,95768.69
2018-12-06T11:19:06.272Z,95757.40
2018-12-06T11:21:35.720Z,95756.16
2018-12-06T11:24:05.111Z,95754.13
2018-12-06T11:26:34.535Z,95743.94
2018-12-06T11:29:03.911Z,95746.05
2018-12-06T11:31:33.521Z,95733.66
2018-12-06T11:34:02.842Z,95729.34
2018-12-06T11:36:32.552Z,95724.45
2018-12-06T11:39:02.354Z,95719.81
2018-12-06T11:41:31.888Z,95721.33
2018-12-06T11:44:01.336Z,95723.26
2018-12-06T11:46:31.135Z,95721.02
2018-12-06T11:49:00.486Z,95717.69
2018-12-06T11:51:30.106Z,95720.30
2018-12-06T11:53:59.861Z,95717.36
2018-12-06T11:56:30.538Z,95713.70
2018-12-06T11:59:02.821Z,95716.59
2018-12-06T12:01:36.648Z,95709.44
2018-12-06T12:04:07.370Z,95708.52
2018-12-06T12:06:37.499Z,95716.91
2018-12-06T12:09:09.453Z,95713.77
2018-12-06T12:11:39.157Z,95729.54
2018-12-06T12:14:10.087Z,95734.52
2018-12-06T12:16:41.386Z,95737.67
2018-12-06T12:19:11.747Z,95737.27
2018-12-06T12:21:42.580Z,95738.70
2018-12-06T12:24:12.655Z,95734.45
2018-12-06T12:26:43.692Z,95727.59
2018-12-06T12:29:15.649Z,95722.34
2018-12-06T12:31:48.078Z,95732.08
2018-12-06T12:34:17.799Z,95735.17
2018-12-06T12:36:48.000Z,95725.77
2018-12-06T12:39:19.055Z,95719.84
2018-12-06T12:41:48.672Z,95716.86
2018-12-06T12:44:18.520Z,95712.45
2018-12-06T12:46:48.032Z,95709.00
2018-12-06T12:49:17.587Z,95713.33
2018-12-06T12:51:47.528Z,95704.38
2018-12-06T12:54:17.001Z,95711.65
2018-12-06T12:56:46.279Z,95715.41
2018-12-06T12:59:16.073Z,95710.10
2018-12-06T13:01:45.576Z,95708.06
2018-12-06T13:04:15.149Z,95704.92
2018-12-06T13:06:44.909Z,95704.61
2018-12-06T13:09:14.462Z,95702.91
2018-12-06T13:11:43.768Z,95709.11
2018-12-06T13:14:13.609Z,95704.63
2018-12-06T13:16:43.372Z,95717.41
2018-12-06T13:19:13.059Z,95716.45
2018-12-06T13:21:43.324Z,95716.70
2018-12-06T13:24:12.825Z,95721.25
2018-12-06T13:26:42.143Z,95716.47
2018-12-06T13:29:12.638Z,95721.80
2018-12-06T13:31:43.361Z,95731.11
2018-12-06T13:34:13.949Z,95718.89
2018-12-06T13:36:43.323Z,95722.47
2018-12-06T13:39:14.239Z,95729.72
2018-12-06T13:41:44.354Z,95724.52
2018-12-06T13:44:15.363Z,95726.63
2018-12-06T13:46:46.412Z,95717.63
2018-12-06T13:49:15.801Z,95720.20
2018-12-06T13:51:45.192Z,95725.22
2018-12-06T13:54:14.540Z,95719.45
2018-12-06T13:56:44.098Z,95711.81
2018-12-06T13:59:13.712Z,95717.01
2018-12-06T14:01:43.588Z,95710.77
2018-12-06T14:04:12.954Z,95714.14
2018-12-06T14:06:42.352Z,95716.30
2018-12-06T14:09:11.625Z,95711.13
2018-12-06T14:11:41.096Z,95712.97
2018-12-06T14:14:10.598Z,95713.02
2018-12-06T14:16:40.315Z,95715.73
2018-12-06T14:19:09.702Z,95718.20
2018-12-06T14:21:38.980Z,95718.30
2018-12-06T14:24:08.788Z,95719.46
2018-12-06T14:26:38.232Z,95719.55
2018-12-06T14:29:07.649Z,95716.17
2018-12-06T14:31:37.433Z,95718.73
2018-12-06T14:34:06.882Z,95719.78
2018-12-06T14:36:36.379Z,95718.44
2018-12-06T14:39:08.916Z,95716.95
2018-12-06T14:41:38.368Z,95723.23
2018-12-06T14:44:07.977Z,95725.41
2018-12-06T14:46:37.881Z,95734.59
2018-12-06T14:49:07.308Z,95640.42
2018-12-06T14:51:36.905Z,95729.30
2018-12-06T14:54:06.747Z,95726.42
2018-12-06T14:56:36.518Z,95745.73
2018-12-06T14:59:05.949Z,95732.31
2018-12-06T15:01:35.700Z,95732.51
2018-12-06T15:04:05.037Z,95733.31
2018-12-06T15:06:37.746Z,95728.39
2018-12-06T15:09:06.183Z,95723.61
2018-12-06T15:11:35.572Z,95730.70
2018-12-06T15:14:05.047Z,95734.13
2018-12-06T15:16:35.017Z,95738.36
2018-12-06T15:19:04.377Z,95655.64
2018-12-06T15:21:34.061Z,95725.81
2018-12-06T15:24:03.727Z,95732.34
2018-12-06T15:26:33.137Z,95730.36
2018-12-06T15:29:02.680Z,95735.22
2018-12-06T15:31:32.825Z,95738.25
2018-12-06T15:34:02.239Z,95738.80
2018-12-06T15:36:32.286Z,95734.52
2018-12-06T15:39:02.203Z,95732.03
2018-12-06T15:41:31.904Z,95744.20
2018-12-06T15:44:01.784Z,95739.34
2018-12-06T15:46:31.393Z,95741.47
2018-12-06T15:49:00.863Z,95741.71
2018-12-06T15:51:30.228Z,95747.66
2018-12-06T15:53:59.971Z,95753.59
2018-12-06T15:56:29.296Z,95750.08
2018-12-06T15:58:58.901Z,95749.34
2018-12-06T16:01:28.710Z,95749.95
2018-12-06T16:03:58.106Z,95750.20
2018-12-06T16:06:27.718Z,95755.06
2018-12-06T16:08:57.620Z,95752.66
2018-12-06T16:11:27.022Z,95755.23
2018-12-06T16:13:56.634Z,95752.56
2018-12-06T16:16:26.379Z,95759.23
2018-12-06T16:18:55.967Z,95759.30
2018-12-06T16:38:46.857Z,95780.90
2018-12-06T16:41:16.280Z,95787.66
2018-12-06T16:43:45.689Z,95785.06
2018-12-06T16:46:15.393Z,95784.92
2018-12-06T16:48:45.071Z,95792.84
2018-12-06T16:51:14.687Z,95792.00
2018-12-06T16:53:44.367Z,95797.73
2018-12-06T16:56:13.831Z,95801.24
2018-12-06T16:58:43.424Z,95801.60
2018-12-06T17:01:12.947Z,95799.05
2018-12-06T17:21:04.809Z,95821.34
2018-12-06T17:23:34.665Z,95820.90
2018-12-06T17:26:03.957Z,95822.42
2018-12-06T17:28:33.533Z,95825.05
2018-12-06T17:31:03.325Z,95823.66
2018-12-06T17:50:54.048Z,95828.23
2018-12-06T17:53:23.689Z,95829.40
2018-12-06T18:13:15.287Z,95813.18
2018-12-06T18:15:46.632Z,95810.48
2018-12-06T18:18:16.057Z,95812.80
2018-12-06T18:20:46.741Z,95818.72
2018-12-06T18:23:16.352Z,95814.73
2018-12-06T18:25:45.796Z,95818.25
2018-12-06T18:28:15.316Z,95813.37
2018-12-06T18:30:47.120Z,95813.70
2018-12-06T18:33:16.137Z,95789.08
2018-12-06T18:35:45.576Z,95789.25
2018-12-06T18:38:15.163Z,95816.53
2018-12-06T18:58:06.309Z,95817.86
2018-12-06T19:00:36.115Z,95820.48
2018-12-06T19:03:05.416Z,95825.02
2018-12-06T19:05:35.070Z,95827.92
2018-12-06T19:08:04.800Z,95840.12
2018-12-06T19:10:34.343Z,95844.30
2018-12-06T19:13:03.702Z,95839.80
2018-12-06T19:15:33.554Z,95838.52
2018-12-06T19:18:02.941Z,95834.97
2018-12-06T19:20:32.683Z,95837.88
2018-12-06T19:23:02.375Z,95840.77
2018-12-06T19:25:31.671Z,95852.34
2018-12-06T19:28:01.016Z,95846.09
2018-12-06T19:30:30.644Z,95850.09
2018-12-06T19:50:22.355Z,95874.19
2018-12-06T19:52:51.872Z,95869.39
2018-12-06T19:55:21.248Z,95865.53
2018-12-06T19:57:50.755Z,95870.36
2018-12-06T20:00:20.204Z,95865.38
2018-12-06T20:02:49.675Z,95868.69
2018-12-06T20:05:19.150Z,95868.71
2018-12-06T20:07:48.816Z,95874.48
2018-12-06T20:27:38.524Z,95888.02
2018-12-06T20:30:08.636Z,95887.72
2018-12-06T20:32:38.299Z,95886.72
2018-12-06T20:35:07.812Z,95882.64
2018-12-06T20:37:37.384Z,95890.96
2018-12-06T20:40:07.043Z,95857.58
2018-12-06T20:42:36.295Z,95893.67
2018-12-06T20:45:06.369Z,95888.30
2018-12-06T20:47:35.749Z,95887.37
2018-12-06T21:07:27.646Z,95879.98
2018-12-06T21:09:57.153Z,95888.53
2018-12-06T21:29:49.231Z,95891.62
2018-12-06T21:32:18.489Z,95891.92
2018-12-06T21:34:47.790Z,95888.26
2018-12-06T21:37:17.551Z,95892.45
2018-12-06T21:39:46.920Z,95889.19
2018-12-06T21:42:16.449Z,95891.44
2018-12-06T21:44:46.506Z,95890.67
2018-12-06T21:47:21.273Z,95889.42
2018-12-06T21:49:51.441Z,95890.50
2018-12-06T21:52:20.973Z,95890.30
2018-12-06T21:54:50.525Z,95893.50
2018-12-06T21:57:20.006Z,95893.63
2018-12-06T22:17:11.178Z,95910.68
2018-12-06T22:19:41.017Z,95903.27
2018-12-06T22:22:10.542Z,95908.74
2018-12-06T22:24:40.068Z,95909.23
2018-12-06T22:27:09.831Z,95900.95
2018-12-06T22:29:45.748Z,95903.27
2018-12-06T22:49:36.766Z,95880.19
2018-12-06T22:52:06.070Z,95875.80
2018-12-06T22:54:35.550Z,95870.20
2018-12-06T22:57:05.141Z,95862.72
2018-12-06T23:16:57.428Z,95867.95
2018-12-06T23:19:26.915Z,95874.17
2018-12-06T23:21:56.161Z,95875.58
2018-12-06T23:24:25.727Z,95864.04
2018-12-06T23:26:55.439Z,95867.58
2018-12-06T23:29:25.072Z,95872.36
2018-12-06T23:31:55.384Z,95879.44
2018-12-06T23:34:25.396Z,95882.97
2018-12-06T23:36:55.039Z,95877.48
2018-12-06T23:39:24.499Z,95878.02
2018-12-06T23:41:54.268Z,95882.16
2018-12-06T23:44:23.908Z,95879.36
2018-12-06T23:46:53.527Z,95875.83
